Time;durP1;ratioP1;P1;durP2;ratioP2;P2;SDS_P1;SDS_P2;PMS_P1;PMS_P2;Temp;Humidity;BMP_temperature;BMP_pressure;BME280_temperature;BME280_humidity;BME280_pressure;Samples;Min_cycle;Max_cycle;Signal;HPM_P1;HPM_P2
2022/08/03 00:01:53;;;;;;;4.73;1.30;;;;;;;21.47;67.59;100265.13;4826038;29;20322;-52
2022/08/03 00:04:24;;;;;;;3.47;1.00;;;;;;;21.59;67.36;100271.47;4826768;29;20315;-53
2022/08/03 00:07:02;;;;;;;1.25;0.55;;;;;;;21.71;66.85;100274.22;4826631;29;20318;-56
2022/08/03 00:09:33;;;;;;;2.87;1.07;;;;;;;21.72;66.59;100275.09;4826626;29;20077;-52
2022/08/03 00:12:04;;;;;;;1.83;0.70;;;;;;;21.65;66.69;100279.09;4826905;29;20494;-53
2022/08/03 00:14:35;;;;;;;2.80;1.07;;;;;;;21.63;68.04;100276.50;4826885;29;20608;-54
2022/08/03 00:17:07;;;;;;;5.10;0.93;;;;;;;21.63;68.23;100265.03;4827241;29;20573;-53
2022/08/03 00:19:38;;;;;;;51.30;3.07;;;;;;;21.56;68.29;100269.00;4827025;29;20430;-55
2022/08/03 00:22:08;;;;;;;6.80;1.10;;;;;;;21.49;68.62;100265.88;4826882;29;20318;-51
2022/08/03 00:24:39;;;;;;;11.27;1.43;;;;;;;21.60;68.54;100265.22;4826473;29;20612;-55
2022/08/03 00:27:10;;;;;;;31.43;3.03;;;;;;;21.59;69.49;100243.09;4826847;29;20521;-56
2022/08/03 00:29:45;;;;;;;57.23;4.27;;;;;;;21.82;69.16;100259.41;4826813;29;20303;-55
2022/08/03 00:32:31;;;;;;;48.33;3.93;;;;;;;21.80;68.50;100251.53;4826620;29;20295;-52
2022/08/03 00:35:01;;;;;;;7.43;1.30;;;;;;;21.70;68.85;100239.75;4826911;29;20291;-56
2022/08/03 00:37:37;;;;;;;4.90;1.10;;;;;;;21.76;68.65;100244.69;4826945;29;20118;-56
2022/08/03 00:40:12;;;;;;;8.47;1.37;;;;;;;21.80;68.66;100234.72;4827096;29;20306;-52
2022/08/03 00:42:52;;;;;;;5.37;0.80;;;;;;;21.79;68.19;100233.88;4826787;29;20295;-53
2022/08/03 00:45:24;;;;;;;15.13;1.50;;;;;;;21.78;67.46;100232.16;4827008;29;20327;-54
2022/08/03 00:47:58;;;;;;;2.03;0.80;;;;;;;21.89;68.37;100235.00;4826772;29;20058;-55
2022/08/03 00:50:31;;;;;;;2.97;1.00;;;;;;;21.98;67.84;100244.19;4826730;29;20585;-56
2022/08/03 00:53:03;;;;;;;12.20;1.53;;;;;;;22.00;67.19;100242.28;4826861;29;20295;-56
2022/08/03 00:55:34;;;;;;;16.97;1.40;;;;;;;22.16;66.15;100263.41;4826920;29;20294;-55
2022/08/03 00:58:06;;;;;;;3.03;0.80;;;;;;;22.16;66.82;100263.41;4826692;29;20103;-55
2022/08/03 01:00:39;;;;;;;6.33;1.10;;;;;;;22.25;67.19;100262.84;4826753;29;20058;-55
2022/08/03 01:03:12;;;;;;;12.23;1.60;;;;;;;22.33;67.65;100265.88;4826607;29;20342;-54
2022/08/03 01:05:53;;;;;;;12.17;1.37;;;;;;;22.37;67.45;100266.53;4826650;29;20580;-56
2022/08/03 01:08:33;;;;;;;3.70;1.20;;;;;;;22.36;66.42;100273.66;4826513;29;20058;-53
2022/08/03 01:11:19;;;;;;;1.23;1.00;;;;;;;22.33;66.80;100265.88;4826635;29;20074;-54
2022/08/03 01:13:59;;;;;;;14.63;1.30;;;;;;;22.31;66.51;100262.44;4826711;29;20055;-57
2022/08/03 01:16:58;;;;;;;14.13;1.27;;;;;;;22.21;66.29;100277.31;4826368;29;20066;-56
2022/08/03 01:19:47;;;;;;;7.53;1.17;;;;;;;22.03;66.51;100268.69;4826762;29;20068;-55
2022/08/03 01:22:58;;;;;;;4.03;1.13;;;;;;;21.82;68.13;100281.53;4826732;29;20216;-56
2022/08/03 01:25:47;;;;;;;3.63;1.00;;;;;;;21.76;68.08;100271.28;4826571;29;20062;-56
2022/08/03 01:28:44;;;;;;;14.37;2.00;;;;;;;21.75;69.06;100269.59;4825862;29;20065;-50
2022/08/03 01:31:26;;;;;;;3.00;1.23;;;;;;;21.62;68.21;100256.19;4825030;29;20121;-56
2022/08/03 01:34:00;;;;;;;15.37;1.63;;;;;;;21.63;68.31;100275.66;4826312;29;20058;-56
2022/08/03 01:36:36;;;;;;;3.63;1.37;;;;;;;21.72;69.67;100280.41;4826192;29;20222;-54
2022/08/03 01:39:10;;;;;;;10.47;1.40;;;;;;;21.70;68.57;100271.69;4826497;29;20066;-56
2022/08/03 01:41:48;;;;;;;20.20;1.83;;;;;;;21.60;68.50;100271.38;4825961;29;20137;-54
2022/08/03 01:44:21;;;;;;;17.55;1.55;;;;;;;21.64;69.06;100256.09;4825499;29;20068;-56
2022/08/03 01:47:02;;;;;;;8.10;1.17;;;;;;;21.80;68.34;100262.16;4825991;29;20054;-54
2022/08/03 01:49:38;;;;;;;6.03;1.00;;;;;;;22.04;68.45;100256.22;4825510;29;20284;-54
2022/08/03 01:52:09;;;;;;;8.70;1.20;;;;;;;22.36;68.45;100257.69;4825857;29;20058;-55
2022/08/03 01:54:45;;;;;;;26.67;1.90;;;;;;;22.66;67.92;100256.59;4825811;29;20557;-56
2022/08/03 01:57:17;;;;;;;6.33;1.17;;;;;;;22.77;66.82;100262.06;4825697;29;20107;-56
2022/08/03 01:59:50;;;;;;;6.13;1.43;;;;;;;22.81;66.50;100263.59;4825432;29;20054;-55
2022/08/03 02:02:23;;;;;;;2.17;1.40;;;;;;;22.79;65.59;100264.66;4826051;29;20050;-56
2022/08/03 02:05:04;;;;;;;12.60;1.73;;;;;;;22.70;66.08;100263.44;4825811;29;20065;-56
2022/08/03 02:07:42;;;;;;;6.30;1.50;;;;;;;22.54;66.00;100263.63;4825863;29;20050;-55
2022/08/03 02:10:15;;;;;;;4.77;1.27;;;;;;;22.53;66.60;100266.38;4825558;29;20109;-53
2022/08/03 02:13:06;;;;;;;4.00;1.30;;;;;;;22.33;67.44;100233.94;4825581;29;20494;-55
2022/08/03 02:15:39;;;;;;;6.07;1.40;;;;;;;22.37;66.83;100262.06;4825926;29;20058;-56
2022/08/03 02:18:12;;;;;;;14.40;1.70;;;;;;;22.23;66.67;100253.28;4825266;29;20064;-57
2022/08/03 02:20:45;;;;;;;9.33;1.67;;;;;;;21.75;66.75;100211.06;4825764;29;20090;-57
2022/08/03 02:23:17;;;;;;;4.40;1.00;;;;;;;21.99;67.32;100251.22;4825702;29;20058;-55
2022/08/03 02:25:51;;;;;;;1.70;1.00;;;;;;;21.90;67.65;100242.00;4826077;29;20372;-53
2022/08/03 02:28:23;;;;;;;15.20;1.50;;;;;;;21.89;67.93;100250.94;4825965;29;20178;-56
2022/08/03 02:30:55;;;;;;;5.17;1.17;;;;;;;21.85;68.05;100244.09;4825649;29;20080;-55
2022/08/03 02:33:31;;;;;;;7.53;1.40;;;;;;;21.76;68.56;100228.72;4825791;29;20061;-56
2022/08/03 02:36:03;;;;;;;2.80;0.90;;;;;;;21.79;68.76;100233.88;4825176;29;20054;-53
2022/08/03 02:38:37;;;;;;;61.97;4.93;;;;;;;21.93;68.93;100230.31;4825593;29;20050;-58
2022/08/03 02:41:14;;;;;;;13.70;1.67;;;;;;;21.97;69.14;100215.88;4824205;29;20362;-57
2022/08/03 02:43:50;;;;;;;4.57;1.03;;;;;;;22.19;68.04;100236.63;4825548;29;20081;-56
2022/08/03 02:46:39;;;;;;;6.63;1.10;;;;;;;22.24;67.80;100221.25;4825245;29;20580;-56
2022/08/03 02:49:14;;;;;;;1.30;0.90;;;;;;;22.34;66.77;100229.44;4825488;29;20415;-53
2022/08/03 02:52:10;;;;;;;2.53;0.90;;;;;;;22.33;66.46;100223.28;4825580;29;20261;-53
2022/08/03 02:54:47;;;;;;;3.47;1.00;;;;;;;22.35;66.59;100226.69;4825191;29;20050;-58
2022/08/03 02:57:19;;;;;;;4.53;1.10;;;;;;;22.40;66.51;100229.91;4825569;29;20058;-53
2022/08/03 02:59:52;;;;;;;2.73;0.90;;;;;;;22.47;66.37;100230.38;4825136;29;20077;-56
2022/08/03 03:02:24;;;;;;;3.33;1.20;;;;;;;22.66;66.56;100224.63;4826503;29;20070;-52
2022/08/03 03:04:57;;;;;;;5.77;1.00;;;;;;;22.91;65.63;100233.63;4827171;29;20050;-56
2022/08/03 03:07:48;;;;;;;59.97;3.20;;;;;;;23.00;65.74;100227.72;4827216;29;20058;-57
2022/08/03 03:10:23;;;;;;;107.90;7.30;;;;;;;22.95;64.99;100232.47;4827402;29;20069;-55
2022/08/03 03:12:56;;;;;;;3.87;0.93;;;;;;;22.83;65.01;100242.16;4827482;29;20129;-56
2022/08/03 03:15:29;;;;;;;10.97;1.67;;;;;;;22.77;65.45;100243.44;4827223;29;20086;-53
2022/08/03 03:18:01;;;;;;;144.73;11.50;;;;;;;22.79;65.25;100246.84;4827441;29;20122;-56
2022/08/03 03:20:35;;;;;;;105.60;6.50;;;;;;;22.98;65.36;100245.63;4828299;29;20062;-51
2022/08/03 03:23:06;;;;;;;11.47;1.40;;;;;;;22.94;64.37;100239.63;4828136;29;20226;-56
2022/08/03 03:25:38;;;;;;;4.77;1.20;;;;;;;23.03;64.64;100248.81;4828592;29;20054;-57
2022/08/03 03:28:11;;;;;;;7.20;1.10;;;;;;;23.01;64.05;100256.06;4827981;29;20046;-56
2022/08/03 03:30:41;;;;;;;84.97;6.47;;;;;;;22.89;64.83;100262.19;4828291;29;20052;-51
2022/08/03 03:33:13;;;;;;;17.93;1.93;;;;;;;22.73;65.16;100263.22;4828429;29;20236;-57
2022/08/03 03:35:47;;;;;;;11.87;1.70;;;;;;;22.61;65.08;100264.03;4828237;29;20069;-55
2022/08/03 03:38:18;;;;;;;5.97;1.63;;;;;;;22.62;66.50;100249.78;4828007;29;20069;-57
2022/08/03 03:40:49;;;;;;;54.47;3.33;;;;;;;22.44;66.59;100208.41;4828169;29;20076;-56
2022/08/03 03:43:20;;;;;;;7.97;1.47;;;;;;;22.68;66.04;100252.03;4828170;29;20046;-56
2022/08/03 03:45:52;;;;;;;7.93;1.80;;;;;;;22.63;65.93;100240.84;4828209;29;20050;-57
2022/08/03 03:48:23;;;;;;;3.37;1.67;;;;;;;22.78;66.90;100244.28;4828001;29;20109;-54
2022/08/03 03:50:56;;;;;;;10.60;1.40;;;;;;;22.80;65.64;100242.38;4827632;29;20138;-54
2022/08/03 03:53:27;;;;;;;3.13;1.23;;;;;;;22.86;66.31;100249.09;4827931;29;20058;-55
2022/08/03 03:55:57;;;;;;;35.73;3.00;;;;;;;22.90;66.45;100242.59;4827668;29;20129;-56
2022/08/03 03:58:33;;;;;;;13.07;1.60;;;;;;;22.79;65.40;100240.69;4827779;29;20260;-56
2022/08/03 04:01:04;;;;;;;20.77;2.10;;;;;;;22.82;66.77;100243.97;4827833;29;21168;-54
2022/08/03 04:03:36;;;;;;;21.47;2.90;;;;;;;22.86;66.23;100238.44;4827806;29;20123;-55
2022/08/03 04:11:48;;;;;;;3.47;1.30;;;;;;;22.62;66.59;100244.47;4826646;29;20050;-56
2022/08/03 04:14:21;;;;;;;19.50;2.00;;;;;;;22.38;66.41;100239.78;4827531;29;20066;-55
2022/08/03 04:16:57;;;;;;;5.43;1.60;;;;;;;22.23;67.33;100248.78;4827346;29;20084;-57
2022/08/03 04:19:31;;;;;;;5.97;1.60;;;;;;;22.06;67.73;100251.66;4827456;29;20054;-55
2022/08/03 04:22:08;;;;;;;5.53;1.30;;;;;;;21.98;68.57;100250.34;4827285;29;20093;-56
2022/08/03 04:24:43;;;;;;;37.67;3.63;;;;;;;22.01;69.31;100264.41;4827211;29;20073;-56
2022/08/03 04:27:17;;;;;;;10.60;1.50;;;;;;;22.05;69.18;100260.59;4827000;29;20058;-54
2022/08/03 04:29:50;;;;;;;13.80;2.07;;;;;;;22.13;69.49;100264.47;4827506;29;20129;-54
2022/08/03 04:32:24;;;;;;;21.97;2.63;;;;;;;22.45;69.90;100258.03;4827567;29;20073;-56
2022/08/03 04:34:55;;;;;;;10.43;1.40;;;;;;;22.72;68.98;100256.22;4826997;29;20089;-56
2022/08/03 04:37:34;;;;;;;3.30;1.10;;;;;;;22.95;67.63;100256.47;4825552;29;20058;-55
2022/08/03 04:40:09;;;;;;;17.40;1.60;;;;;;;23.16;66.99;100254.16;4827187;29;20137;-56
2022/08/03 04:42:43;;;;;;;3.67;1.40;;;;;;;23.32;66.01;100240.63;4826887;29;20046;-55
2022/08/03 04:45:15;;;;;;;8.57;1.67;;;;;;;23.43;65.87;100230.91;4826323;29;20061;-55
2022/08/03 04:47:46;;;;;;;17.03;2.03;;;;;;;23.60;65.25;100227.03;4826671;29;20247;-56
2022/08/03 04:50:17;;;;;;;9.77;1.80;;;;;;;23.95;65.30;100237.03;4826695;29;20058;-56
2022/08/03 04:52:52;;;;;;;5.63;1.70;;;;;;;24.29;64.71;100229.22;4827006;29;20465;-56
2022/08/03 04:55:29;;;;;;;5.67;1.77;;;;;;;24.32;63.20;100229.00;4827327;29;20066;-56
2022/08/03 04:58:00;;;;;;;369.70;22.40;;;;;;;24.26;62.94;100232.09;4826654;29;20064;-52
2022/08/03 05:00:31;;;;;;;5.40;1.30;;;;;;;23.99;63.22;100233.19;4826408;29;20066;-55
2022/08/03 05:03:02;;;;;;;14.03;1.83;;;;;;;23.87;64.79;100223.41;4826669;29;20058;-57
2022/08/03 05:05:48;;;;;;;10.10;1.50;;;;;;;23.71;63.95;100228.09;4826710;29;20058;-57
2022/08/03 05:08:21;;;;;;;26.57;2.93;;;;;;;23.57;64.95;100227.28;4827074;29;20093;-56
2022/08/03 05:10:57;;;;;;;5.27;1.70;;;;;;;23.46;64.82;100224.50;4826299;29;20117;-55
2022/08/03 05:13:28;;;;;;;17.53;2.37;;;;;;;23.43;64.99;100225.56;4826346;29;20069;-55
2022/08/03 05:15:58;;;;;;;110.00;8.67;;;;;;;23.20;64.67;100221.84;4826044;29;20505;-57
2022/08/03 05:18:29;;;;;;;9.53;1.70;;;;;;;23.04;64.69;100229.22;4826472;29;20069;-54
2022/08/03 05:21:00;;;;;;;5.87;2.20;;;;;;;22.98;65.98;100232.28;4826516;29;20066;-56
2022/08/03 05:23:32;;;;;;;4.30;1.60;;;;;;;22.90;66.98;100226.63;4825683;29;20081;-55
2022/08/03 05:26:03;;;;;;;10.03;2.07;;;;;;;22.96;66.48;100229.69;4826479;29;20215;-56
2022/08/03 05:28:36;;;;;;;4.03;1.57;;;;;;;22.92;66.54;100219.38;4826311;29;20062;-57
2022/08/03 05:31:07;;;;;;;6.27;2.10;;;;;;;22.86;66.84;100219.78;4826246;29;20066;-57
2022/08/03 05:33:37;;;;;;;5.37;1.63;;;;;;;22.63;66.87;100218.69;4825977;29;20065;-53
2022/08/03 05:36:09;;;;;;;9.90;2.00;;;;;;;22.50;67.33;100216.00;4825016;29;20057;-57
2022/08/03 05:38:41;;;;;;;6.07;2.00;;;;;;;22.51;68.16;100207.03;4825946;29;20046;-55
2022/08/03 05:41:12;;;;;;;4.73;1.70;;;;;;;22.62;68.39;100196.53;4826239;29;20129;-57
2022/08/03 05:43:53;;;;;;;6.83;2.17;;;;;;;22.50;69.02;100187.56;4826122;29;20073;-54
2022/08/03 05:46:24;;;;;;;9.13;2.00;;;;;;;22.36;69.29;100193.78;4826167;29;20062;-56
2022/08/03 05:48:55;;;;;;;4.43;1.77;;;;;;;22.23;69.30;100184.91;4824370;29;20066;-58
2022/08/03 05:51:26;;;;;;;3.97;1.80;;;;;;;22.21;69.53;100196.63;4825054;29;20132;-57
2022/08/03 05:53:58;;;;;;;10.53;1.50;;;;;;;22.15;69.83;100208.50;4825321;29;20084;-53
2022/08/03 05:56:29;;;;;;;3.97;1.60;;;;;;;22.10;70.03;100194.66;4825873;29;20062;-55
2022/08/03 05:59:00;;;;;;;7.13;1.90;;;;;;;22.22;70.23;100199.19;4826365;29;20058;-53
2022/08/03 06:01:50;;;;;;;163.00;11.37;;;;;;;22.63;70.56;100203.56;4826289;29;20062;-55
2022/08/03 06:04:21;;;;;;;192.27;12.10;;;;;;;22.74;68.91;100217.00;4826209;29;20058;-57
2022/08/03 06:06:52;;;;;;;16.47;2.47;;;;;;;22.82;68.40;100220.00;4825723;29;20062;-57
2022/08/03 06:09:24;;;;;;;9.10;1.90;;;;;;;22.53;68.22;100202.47;4825898;29;20062;-56
2022/08/03 06:12:15;;;;;;;9.83;2.20;;;;;;;22.37;68.19;100229.28;4825775;29;20315;-58
2022/08/03 06:14:47;;;;;;;11.20;1.90;;;;;;;22.22;69.16;100236.44;4824400;29;20098;-57
2022/08/03 06:17:18;;;;;;;12.07;2.40;;;;;;;22.26;70.06;100227.28;4826021;29;20065;-57
2022/08/03 06:19:49;;;;;;;17.67;2.20;;;;;;;22.35;69.58;100232.03;4826031;29;20095;-59
2022/08/03 06:22:20;;;;;;;7.27;1.93;;;;;;;22.39;68.69;100238.00;4826153;29;20870;-56
2022/08/03 06:24:57;;;;;;;25.57;2.27;;;;;;;22.48;68.69;100231.22;4826207;29;20274;-57
2022/08/03 06:27:38;;;;;;;10.13;2.27;;;;;;;22.55;69.14;100240.50;4825765;29;20311;-62
2022/08/03 06:30:11;;;;;;;5.60;1.80;;;;;;;22.54;68.70;100241.44;4825598;29;20068;-57
2022/08/03 06:32:48;;;;;;;6.80;1.90;;;;;;;22.42;68.14;100226.31;4825303;29;20110;-57
2022/08/03 06:35:21;;;;;;;5.10;1.43;;;;;;;22.22;67.85;100236.44;4826936;29;20081;-54
2022/08/03 06:37:53;;;;;;;34.27;3.40;;;;;;;22.17;68.66;100243.84;4829354;29;20075;-53
2022/08/03 06:40:30;;;;;;;50.10;4.30;;;;;;;22.10;69.01;100253.19;4828706;29;20054;-57
2022/08/03 06:43:02;;;;;;;9.30;2.27;;;;;;;21.89;69.50;100229.66;4828951;29;20077;-58
2022/08/03 06:45:38;;;;;;;7.67;2.27;;;;;;;21.93;69.42;100241.81;4828711;29;20066;-59
2022/08/03 06:48:10;;;;;;;8.73;1.97;;;;;;;21.48;69.74;100182.63;4828481;29;20062;-57
2022/08/03 06:50:43;;;;;;;25.43;3.30;;;;;;;21.73;70.70;100229.78;4828505;29;20072;-56
2022/08/03 06:53:14;;;;;;;5.10;2.00;;;;;;;21.72;70.98;100233.41;4828705;29;20078;-58
2022/08/03 06:55:51;;;;;;;8.10;2.03;;;;;;;21.61;71.03;100235.84;4828742;29;20311;-57
2022/08/03 06:58:23;;;;;;;14.07;2.40;;;;;;;21.53;71.08;100233.69;4827651;29;20323;-56
2022/08/03 07:00:54;;;;;;;29.37;3.43;;;;;;;21.49;71.06;100226.88;4827370;29;20066;-57
2022/08/03 07:03:25;;;;;;;12.33;2.40;;;;;;;21.27;71.35;100215.84;4828135;29;20058;-56
2022/08/03 07:05:56;;;;;;;8.90;2.50;;;;;;;21.35;71.87;100226.84;4826806;29;20358;-56
2022/08/03 07:08:28;;;;;;;12.63;2.40;;;;;;;21.41;72.11;100222.97;4828145;29;20081;-56
2022/08/03 07:11:04;;;;;;;88.67;8.33;;;;;;;21.37;71.91;100219.63;4828168;29;20494;-55
2022/08/03 07:13:35;;;;;;;9.70;4.87;;;;;;;21.19;72.04;100210.13;4828329;29;20054;-57
2022/08/03 07:16:06;;;;;;;9.63;2.20;;;;;;;21.13;72.12;100223.78;4828479;29;20077;-56
2022/08/03 07:18:40;;;;;;;13.33;2.47;;;;;;;20.95;72.62;100215.97;4828291;29;20313;-58
2022/08/03 07:21:11;;;;;;;16.03;2.40;;;;;;;20.82;72.89;100209.72;4828800;29;20303;-56
2022/08/03 07:23:43;;;;;;;6.67;2.33;;;;;;;20.71;73.18;100212.13;4828224;29;20345;-59
2022/08/03 07:26:15;;;;;;;28.93;3.03;;;;;;;20.67;73.53;100204.34;4828407;29;20287;-56
2022/08/03 07:28:46;;;;;;;13.87;2.77;;;;;;;20.74;74.21;100206.63;4827935;29;20319;-54
2022/08/03 07:31:17;;;;;;;14.97;2.37;;;;;;;20.78;73.88;100197.56;4827820;29;20479;-56
2022/08/03 07:33:49;;;;;;;8.87;2.30;;;;;;;20.77;73.64;100201.16;4827759;29;20332;-57
2022/08/03 07:36:20;;;;;;;7.23;2.33;;;;;;;20.72;73.87;100214.72;4828343;29;20295;-56
2022/08/03 07:38:51;;;;;;;18.00;3.40;;;;;;;20.66;74.12;100210.59;4827982;29;20351;-56
2022/08/03 07:41:24;;;;;;;8.47;2.60;;;;;;;20.60;74.33;100210.97;4828162;29;20395;-56
2022/08/03 07:43:55;;;;;;;11.97;2.60;;;;;;;20.60;74.81;100210.97;4828002;29;20292;-56
2022/08/03 07:46:27;;;;;;;8.87;2.93;;;;;;;20.50;74.06;100209.78;4826925;29;20295;-57
2022/08/03 07:48:58;;;;;;;9.83;2.90;;;;;;;20.38;74.33;100210.47;4827527;29;20338;-58
2022/08/03 07:51:30;;;;;;;12.57;3.20;;;;;;;20.25;74.68;100195.28;4827701;29;20306;-57
2022/08/03 07:54:01;;;;;;;13.50;3.00;;;;;;;20.26;75.10;100194.31;4827699;29;20299;-55
2022/08/03 07:56:34;;;;;;;13.87;2.80;;;;;;;20.19;75.58;100211.56;4827536;29;20315;-57
2022/08/03 07:59:05;;;;;;;23.10;3.87;;;;;;;20.08;75.88;100221.91;4827491;29;20291;-58
2022/08/03 08:01:36;;;;;;;24.13;3.70;;;;;;;19.92;76.33;100213.09;4827804;29;20299;-58
2022/08/03 08:04:08;;;;;;;9.43;3.80;;;;;;;19.83;77.08;100207.38;4827690;29;20329;-56
2022/08/03 08:06:39;;;;;;;30.07;5.10;;;;;;;19.74;77.42;100199.91;4827371;29;20348;-57
2022/08/03 08:09:11;;;;;;;17.80;3.37;;;;;;;19.70;77.51;100201.03;4827554;29;20338;-57
2022/08/03 08:11:43;;;;;;;41.40;4.57;;;;;;;19.61;77.81;100209.44;4827772;29;20287;-56
2022/08/03 08:14:14;;;;;;;11.37;4.60;;;;;;;19.52;78.01;100205.53;4827544;29;20314;-55
2022/08/03 08:16:46;;;;;;;36.77;4.47;;;;;;;19.42;78.32;100203.44;4827360;29;20360;-57
2022/08/03 08:19:17;;;;;;;10.53;3.90;;;;;;;19.43;78.95;100199.88;4827407;29;20595;-58
2022/08/03 08:21:51;;;;;;;13.03;4.67;;;;;;;19.43;79.42;100198.06;4827888;29;20318;-55
2022/08/03 08:24:32;;;;;;;13.17;4.00;;;;;;;19.39;79.21;100210.63;4827352;29;20287;-57
2022/08/03 08:27:07;;;;;;;17.27;3.90;;;;;;;19.34;79.53;100212.66;4828052;29;20358;-57
2022/08/03 08:29:38;;;;;;;80.83;6.37;;;;;;;19.16;79.77;100185.34;4826858;29;20778;-55
2022/08/03 08:32:27;;;;;;;13.97;4.10;;;;;;;19.23;80.01;100204.44;4826560;29;20308;-56
2022/08/03 08:34:58;;;;;;;11.70;2.57;;;;;;;19.11;80.78;100207.72;4827271;29;20628;-55
2022/08/03 08:37:28;;;;;;;11.37;3.30;;;;;;;19.03;81.16;100207.28;4826748;29;20303;-56
2022/08/03 08:39:59;;;;;;;16.37;3.50;;;;;;;18.95;81.81;100203.25;4826857;29;20358;-57
2022/08/03 08:42:32;;;;;;;21.80;3.70;;;;;;;18.85;82.26;100207.31;4826962;29;20283;-56
2022/08/03 08:45:04;;;;;;;18.10;4.27;;;;;;;18.87;82.38;100213.38;4826731;29;20373;-57
2022/08/03 08:47:38;;;;;;;11.40;3.27;;;;;;;18.88;82.42;100204.50;4826876;29;20284;-55
2022/08/03 08:50:21;;;;;;;12.70;5.10;;;;;;;18.79;82.17;100215.53;4826967;29;20286;-56
2022/08/03 08:53:01;;;;;;;18.97;5.27;;;;;;;18.77;82.57;100217.44;4826831;29;20316;-57
2022/08/03 08:55:32;;;;;;;12.27;5.13;;;;;;;18.71;82.48;100215.06;4826834;29;20294;-56
2022/08/03 08:58:25;;;;;;;13.67;3.83;;;;;;;18.79;82.20;100231.44;4826777;29;20289;-58
2022/08/03 09:00:57;;;;;;;14.90;4.27;;;;;;;18.72;82.16;100224.69;4826655;29;20348;-56
2022/08/03 09:03:28;;;;;;;13.17;5.73;;;;;;;18.69;82.45;100240.75;4826865;29;20291;-55
2022/08/03 09:06:03;;;;;;;14.50;8.10;;;;;;;18.68;82.47;100234.59;4825622;29;20304;-56
2022/08/03 09:08:34;;;;;;;15.63;10.00;;;;;;;18.63;82.84;100230.47;4826627;29;20320;-56
2022/08/03 09:11:06;;;;;;;14.20;6.23;;;;;;;18.53;83.18;100236.22;4826522;29;20362;-56
2022/08/03 09:13:42;;;;;;;10.93;6.13;;;;;;;18.42;83.68;100238.56;4826439;29;20298;-55
2022/08/03 09:16:17;;;;;;;10.33;5.70;;;;;;;18.35;84.18;100253.00;4826148;29;20292;-56
2022/08/03 09:18:50;;;;;;;22.20;7.47;;;;;;;18.36;84.49;100256.50;4826194;29;20296;-57
2022/08/03 09:21:23;;;;;;;23.33;6.97;;;;;;;18.31;84.64;100251.44;4826623;29;20323;-57
2022/08/03 09:24:04;;;;;;;15.33;5.93;;;;;;;18.29;84.70;100271.81;4826453;29;20364;-57
2022/08/03 09:26:50;;;;;;;22.02;6.85;;;;;;;18.31;84.76;100283.19;4826133;29;20352;-57
2022/08/03 09:29:24;;;;;;;16.87;5.17;;;;;;;18.29;84.90;100280.59;4825715;29;20093;-52
2022/08/03 09:32:02;;;;;;;23.03;7.60;;;;;;;18.08;85.34;100248.09;4824496;29;20572;-54
2022/08/03 09:34:33;;;;;;;27.40;14.17;;;;;;;18.18;85.53;100288.19;4826243;29;20283;-56
2022/08/03 09:37:13;;;;;;;17.07;8.83;;;;;;;18.14;86.06;100285.78;4826161;29;20351;-55
2022/08/03 09:39:44;;;;;;;16.13;6.93;;;;;;;18.14;86.14;100280.47;4826323;29;20307;-55
2022/08/03 09:42:16;;;;;;;15.70;5.70;;;;;;;18.02;86.19;100269.56;4825882;29;20319;-55
2022/08/03 09:44:54;;;;;;;18.07;6.70;;;;;;;18.00;86.47;100275.84;4826339;29;20593;-56
2022/08/03 09:47:30;;;;;;;17.30;9.00;;;;;;;18.03;86.54;100284.50;4826235;29;20355;-56
2022/08/03 09:50:02;;;;;;;12.43;5.17;;;;;;;18.01;86.37;100286.34;4825758;29;20326;-53
2022/08/03 09:52:35;;;;;;;14.13;5.63;;;;;;;17.99;86.60;100298.78;4825720;29;20619;-55
2022/08/03 09:55:22;;;;;;;16.13;5.80;;;;;;;17.98;86.89;100306.78;4825359;29;20612;-56
2022/08/03 09:58:13;;;;;;;28.77;7.03;;;;;;;17.99;87.18;100290.84;4825355;29;20581;-53
2022/08/03 10:01:02;;;;;;;24.13;8.43;;;;;;;17.97;87.58;100299.78;4825592;29;20674;-54
2022/08/03 10:03:35;;;;;;;19.53;7.77;;;;;;;18.03;87.51;100300.34;4824943;29;20304;-54
2022/08/03 10:06:26;;;;;;;10.87;5.10;;;;;;;17.96;87.32;100304.19;4825520;29;20611;-56
2022/08/03 10:09:08;;;;;;;15.33;6.37;;;;;;;17.99;87.25;100304.06;4825626;29;20348;-55
2022/08/03 10:11:39;;;;;;;14.97;5.23;;;;;;;18.02;87.45;100293.38;4828714;29;20299;-55
2022/08/03 10:14:17;;;;;;;14.47;5.50;;;;;;;17.96;87.31;100277.78;4829481;29;20695;-54
2022/08/03 10:16:50;;;;;;;16.83;9.83;;;;;;;17.90;86.80;100272.78;4829287;29;20560;-55
2022/08/03 10:19:21;;;;;;;17.63;9.30;;;;;;;17.95;86.86;100297.22;4829354;29;20499;-55
2022/08/03 10:21:56;;;;;;;19.20;6.43;;;;;;;17.95;87.03;100297.22;4829381;29;20579;-55
2022/08/03 10:24:30;;;;;;;13.67;4.93;;;;;;;17.95;86.96;100297.22;4829283;29;20300;-55
2022/08/03 10:27:03;;;;;;;16.40;6.70;;;;;;;17.97;87.11;100305.06;4828984;29;20883;-54
2022/08/03 10:29:39;;;;;;;14.80;7.90;;;;;;;17.92;87.06;100302.63;4829092;29;20330;-55
2022/08/03 10:32:16;;;;;;;11.40;4.50;;;;;;;17.85;87.41;100301.22;4828805;29;20386;-55
2022/08/03 10:34:51;;;;;;;22.30;8.63;;;;;;;17.79;87.67;100301.44;4828891;29;20323;-55
2022/08/03 10:37:38;;;;;;;13.53;5.83;;;;;;;17.77;87.58;100308.59;4828801;29;20334;-53
2022/08/03 10:40:27;;;;;;;13.73;4.73;;;;;;;17.62;87.67;100307.47;4828731;29;20558;-56
2022/08/03 10:43:22;;;;;;;15.23;4.10;;;;;;;17.74;87.87;100319.28;4828413;29;20291;-56
2022/08/03 10:45:53;;;;;;;12.33;4.77;;;;;;;17.71;88.17;100311.50;4827770;29;20469;-52
2022/08/03 10:48:27;;;;;;;13.60;5.40;;;;;;;17.69;88.13;100306.28;4828539;29;20487;-52
2022/08/03 10:50:57;;;;;;;14.70;4.87;;;;;;;17.70;88.41;100313.31;4827897;29;20320;-55
2022/08/03 10:53:39;;;;;;;15.13;4.63;;;;;;;17.72;88.45;100313.22;4828609;29;20299;-54
2022/08/03 11:00:02;;;;;;;14.47;6.60;;;;;;;17.68;88.62;100316.00;4827794;29;20328;-53
2022/08/03 11:03:10;;;;;;;12.60;5.77;;;;;;;17.63;88.61;100318.00;4827350;29;20345;-55
2022/08/03 11:05:44;;;;;;;13.70;7.13;;;;;;;17.56;88.82;100311.25;4827977;29;20300;-53
2022/08/03 11:08:29;;;;;;;10.10;3.83;;;;;;;17.17;89.03;100255.78;4828000;29;20331;-55
2022/08/03 11:11:02;;;;;;;38.77;5.23;;;;;;;17.58;89.17;100308.56;4828579;29;20343;-55
2022/08/03 11:13:33;;;;;;;22.40;3.70;;;;;;;17.62;89.12;100311.00;4827691;29;20307;-55
2022/08/03 11:16:22;;;;;;;9.60;5.10;;;;;;;17.65;89.14;100310.00;4827855;29;20291;-52
2022/08/03 11:19:00;;;;;;;14.38;4.70;;;;;;;17.60;89.21;100312.00;4827147;29;20312;-52
2022/08/03 11:21:56;;;;;;;10.70;3.73;;;;;;;17.56;89.22;100319.19;4827918;29;20054;-54
2022/08/03 11:25:03;;;;;;;9.63;3.70;;;;;;;17.52;89.56;100325.53;4828047;29;20295;-54
2022/08/03 11:27:34;;;;;;;9.33;3.90;;;;;;;17.22;89.57;100281.06;4827739;29;20299;-58
2022/08/03 11:30:08;;;;;;;12.37;5.00;;;;;;;17.40;89.81;100315.53;4827879;29;20304;-55
2022/08/03 11:33:01;;;;;;;7.57;3.80;;;;;;;17.46;89.87;100320.53;4827554;29;20283;-52
2022/08/03 11:35:34;;;;;;;13.37;4.33;;;;;;;17.44;89.98;100330.31;4827808;29;20280;-54
2022/08/03 11:38:12;;;;;;;23.83;3.80;;;;;;;17.43;90.32;100323.31;4827853;29;20303;-53
2022/08/03 11:40:45;;;;;;;16.13;3.70;;;;;;;17.45;90.51;100329.41;4827767;29;20292;-56
2022/08/03 11:43:45;;;;;;;14.80;4.03;;;;;;;17.49;90.30;100335.38;4828293;29;20287;-55
2022/08/03 11:46:20;;;;;;;9.20;3.50;;;;;;;17.46;90.45;100331.09;4807603;29;20292;-53
2022/08/03 11:49:05;;;;;;;11.10;3.77;;;;;;;17.28;90.53;100300.22;4825381;29;20288;-56
2022/08/03 11:51:40;;;;;;;13.77;4.10;;;;;;;17.33;90.67;100303.50;4827441;29;20319;-56
2022/08/03 11:54:12;;;;;;;8.90;3.27;;;;;;;17.29;90.94;100308.06;4827748;29;20599;-53
2022/08/03 11:56:47;;;;;;;53.60;5.10;;;;;;;17.34;90.71;100315.78;4827652;29;21063;-55
2022/08/03 11:59:18;;;;;;;12.37;3.87;;;;;;;17.30;90.68;100308.91;4827925;29;20609;-53
2022/08/03 12:01:51;;;;;;;10.87;3.67;;;;;;;17.40;90.71;100315.53;4827841;29;20307;-55
2022/08/03 12:04:22;;;;;;;7.83;3.30;;;;;;;17.41;90.78;100317.22;4827960;29;20633;-55
2022/08/03 12:07:02;;;;;;;12.93;3.97;;;;;;;17.40;90.87;100315.53;4827923;29;20307;-54